Time;durP1;ratioP1;P1;durP2;ratioP2;P2;SDS_P1;SDS_P2;PMS_P1;PMS_P2;Temp;Humidity;BMP_temperature;BMP_pressure;BME280_temperature;BME280_humidity;BME280_pressure;Samples;Min_cycle;Max_cycle;Signal;HPM_P1;HPM_P2
2022/10/21 00:01:05;;;;;;;15.50;13.90;;;9.30;27.10;;;;;;5047677;28;20186;-79
2022/10/21 00:03:31;;;;;;;16.17;13.20;;;9.30;1.00;;;;;;5047315;28;20212;-79
2022/10/21 00:05:57;;;;;;;17.27;14.03;;;9.20;1.00;;;;;;5046076;28;20205;-79
2022/10/21 00:08:23;;;;;;;14.43;12.67;;;9.20;1.00;;;;;;5047815;28;20291;-80
2022/10/21 00:10:53;;;;;;;15.70;13.67;;;9.20;1.00;;;;;;5047664;28;21044;-80
2022/10/21 00:13:20;;;;;;;15.80;13.77;;;9.20;99.90;;;;;;5044201;28;20281;-80
2022/10/21 00:16:03;;;;;;;17.60;13.60;;;9.20;1.00;;;;;;5046333;28;20351;-79
2022/10/21 00:18:30;;;;;;;16.13;13.40;;;9.20;99.90;;;;;;5045460;28;20174;-80
2022/10/21 00:20:55;;;;;;;14.23;12.73;;;9.30;1.00;;;;;;5045550;28;20240;-80
2022/10/21 00:23:21;;;;;;;15.80;13.30;;;9.30;99.90;;;;;;5047068;28;20595;-80
2022/10/21 00:25:47;;;;;;;14.77;12.53;;;9.20;1.00;;;;;;5045862;28;20194;-78
2022/10/21 00:28:12;;;;;;;14.77;13.17;;;9.30;1.00;;;;;;5045756;28;20182;-80
2022/10/21 00:30:43;;;;;;;15.70;13.33;;;9.20;99.90;;;;;;5045529;28;20553;-79
2022/10/21 00:33:10;;;;;;;16.47;13.20;;;9.20;99.90;;;;;;5045533;28;20674;-78
2022/10/21 00:35:36;;;;;;;15.77;12.50;;;9.20;99.90;;;;;;5044517;28;20210;-79
2022/10/21 00:38:02;;;;;;;16.13;13.37;;;9.20;18.80;;;;;;5047530;28;20182;-80
2022/10/21 00:40:27;;;;;;;15.10;13.40;;;9.10;1.00;;;;;;5045403;28;20190;-80
2022/10/21 00:42:53;;;;;;;16.07;13.73;;;9.20;34.80;;;;;;5045293;28;20194;-80
2022/10/21 00:45:25;;;;;;;16.03;13.30;;;9.50;54.60;;;;;;5046621;28;20198;-78
2022/10/21 00:47:53;;;;;;;15.33;12.67;;;9.10;1.00;;;;;;5047212;28;20197;-79
2022/10/21 00:50:31;;;;;;;15.83;14.13;;;9.10;1.00;;;;;;5045958;28;20182;-78
2022/10/21 00:52:59;;;;;;;18.30;14.13;;;9.10;1.00;;;;;;5044371;28;20193;-79
2022/10/21 00:55:28;;;;;;;17.00;14.80;;;9.10;66.40;;;;;;5044491;28;20298;-80
2022/10/21 00:57:55;;;;;;;16.33;14.27;;;9.20;99.90;;;;;;5045979;28;20478;-78
2022/10/21 01:00:21;;;;;;;17.53;14.80;;;9.20;1.00;;;;;;5044988;28;20193;-80
2022/10/21 01:02:46;;;;;;;18.70;15.03;;;9.30;1.00;;;;;;5044703;28;20202;-79
2022/10/21 01:05:12;;;;;;;17.27;14.47;;;9.80;1.00;;;;;;5044112;28;20600;-80
2022/10/21 01:07:38;;;;;;;17.80;14.73;;;9.40;1.00;;;;;;5046708;28;20202;-79
2022/10/21 01:10:05;;;;;;;17.17;15.03;;;9.30;1.00;;;;;;5044965;28;20213;-79
2022/10/21 01:12:45;;;;;;;19.43;15.07;;;9.40;1.00;;;;;;5044775;28;20580;-78
2022/10/21 01:15:20;;;;;;;18.23;14.13;;;9.30;1.00;;;;;;5044759;28;20233;-79
2022/10/21 01:17:46;;;;;;;16.97;14.13;;;9.40;1.00;;;;;;5053511;28;20174;-79
2022/10/21 01:20:23;;;;;;;18.07;14.30;;;9.40;1.00;;;;;;5046330;28;20197;-78
2022/10/21 01:23:22;;;;;;;20.20;15.50;;;9.40;1.00;;;;;;5044359;28;20221;-79
2022/10/21 01:26:08;;;;;;;16.10;14.20;;;9.40;1.00;;;;;;5044505;28;20205;-79
2022/10/21 01:29:02;;;;;;;16.63;14.40;;;9.40;1.00;;;;;;5041897;28;20693;-79
2022/10/21 01:31:45;;;;;;;20.17;14.67;;;9.40;1.00;;;;;;5044139;28;20186;-78
2022/10/21 01:34:30;;;;;;;18.97;13.80;;;9.40;1.00;;;;;;5044185;28;20202;-81
2022/10/21 01:37:09;;;;;;;16.83;14.33;;;9.60;1.00;;;;;;5044071;28;20450;-79
2022/10/21 01:39:46;;;;;;;17.23;14.17;;;9.50;1.00;;;;;;5044998;28;20178;-77
2022/10/21 01:42:31;;;;;;;19.57;14.73;;;9.40;1.00;;;;;;5044150;28;20209;-77
2022/10/21 01:45:16;;;;;;;16.63;14.17;;;9.50;48.20;;;;;;5045381;28;20197;-81
2022/10/21 01:47:52;;;;;;;18.93;14.77;;;9.50;99.90;;;;;;5044923;28;20182;-77
2022/10/21 01:50:24;;;;;;;18.07;14.83;;;9.60;99.90;;;;;;5044424;28;20182;-77
2022/10/21 01:52:54;;;;;;;17.97;15.37;;;9.80;99.90;;;;;;5040894;28;20184;-77
2022/10/21 01:55:22;;;;;;;19.03;14.97;;;9.70;1.00;;;;;;5051812;28;20212;-79
2022/10/21 01:57:57;;;;;;;16.40;14.27;;;9.80;1.00;;;;;;5042890;28;20182;-78
2022/10/21 02:00:24;;;;;;;18.23;14.87;;;9.80;1.00;;;;;;5045134;28;20185;-78
2022/10/21 02:02:51;;;;;;;20.60;14.67;;;9.90;1.00;;;;;;5042889;28;20755;-79
2022/10/21 02:05:24;;;;;;;19.33;14.83;;;9.90;99.90;;;;;;5043594;28;20202;-78
2022/10/21 02:07:50;;;;;;;15.00;13.40;;;9.90;99.90;;;;;;5045427;28;20174;-79
2022/10/21 02:10:17;;;;;;;16.93;13.90;;;10.00;99.90;;;;;;5045436;28;20185;-79
2022/10/21 02:12:45;;;;;;;15.47;13.87;;;10.10;99.90;;;;;;5045131;28;20186;-78
2022/10/21 02:15:12;;;;;;;16.63;13.93;;;10.10;91.10;;;;;;5044705;28;20237;-79
2022/10/21 02:17:41;;;;;;;17.60;13.50;;;10.10;1.00;;;;;;5043153;28;20265;-79
2022/10/21 02:20:11;;;;;;;15.27;13.03;;;10.10;1.00;;;;;;5043275;28;20189;-78
2022/10/21 02:22:38;;;;;;;14.60;13.13;;;10.10;1.00;;;;;;5042575;28;20209;-79
2022/10/21 02:25:21;;;;;;;14.90;13.23;;;10.10;99.90;;;;;;5044873;28;20277;-79
2022/10/21 02:27:47;;;;;;;13.60;12.07;;;10.00;99.90;;;;;;5042347;28;20549;-78
2022/10/21 02:30:13;;;;;;;14.47;12.97;;;10.10;99.90;;;;;;5041759;28;20182;-80
2022/10/21 02:33:00;;;;;;;14.30;12.90;;;10.20;99.90;;;;;;5043253;28;20177;-79
2022/10/21 02:35:38;;;;;;;14.47;12.27;;;10.10;99.90;;;;;;5044931;28;20237;-79
2022/10/21 02:38:15;;;;;;;13.57;12.17;;;10.20;99.90;;;;;;5048415;28;20182;-79
2022/10/21 02:40:44;;;;;;;12.87;11.33;;;10.20;99.90;;;;;;5048446;28;20174;-80
2022/10/21 02:43:20;;;;;;;13.17;11.87;;;10.10;1.00;;;;;;5053450;28;20198;-79
2022/10/21 02:45:47;;;;;;;14.57;11.50;;;10.30;1.00;;;;;;5047609;28;20689;-78
2022/10/21 02:48:13;;;;;;;15.47;12.83;;;10.30;99.90;;;;;;5047760;28;20194;-78
2022/10/21 02:50:38;;;;;;;14.67;12.67;;;10.30;12.10;;;;;;5047432;28;20185;-79
2022/10/21 02:53:04;;;;;;;14.83;13.20;;;10.30;99.90;;;;;;5046694;28;20553;-79
2022/10/21 02:55:30;;;;;;;16.27;13.83;;;10.30;1.00;;;;;;5048555;28;20209;-78
2022/10/21 02:57:55;;;;;;;15.30;13.00;;;10.20;1.00;;;;;;5046936;28;20186;-79
2022/10/21 03:00:21;;;;;;;13.57;12.15;;;10.10;1.00;;;;;;5046931;28;20189;-79
2022/10/21 03:02:46;;;;;;;14.07;12.13;;;10.30;99.90;;;;;;5048180;28;20210;-79
2022/10/21 03:05:12;;;;;;;14.23;12.50;;;10.10;99.90;;;;;;5047922;28;20210;-79
2022/10/21 03:07:39;;;;;;;15.33;13.00;;;10.10;99.90;;;;;;5046912;28;20312;-78
2022/10/21 03:10:04;;;;;;;14.20;12.27;;;10.10;1.00;;;;;;5046825;28;20231;-78
2022/10/21 03:12:30;;;;;;;13.30;11.03;;;10.10;1.00;;;;;;5047760;28;20182;-79
2022/10/21 03:14:56;;;;;;;14.23;12.70;;;10.10;1.00;;;;;;5048201;28;20210;-78
2022/10/21 03:17:21;;;;;;;14.73;13.23;;;10.00;1.00;;;;;;5046310;28;20201;-80
2022/10/21 03:19:47;;;;;;;14.90;12.87;;;10.10;99.90;;;;;;5046427;28;20723;-79
2022/10/21 03:22:12;;;;;;;14.57;13.07;;;10.00;25.50;;;;;;5047478;28;20270;-80
2022/10/21 03:24:38;;;;;;;13.80;12.37;;;10.10;99.90;;;;;;5046555;28;20193;-78
2022/10/21 03:27:04;;;;;;;13.93;12.03;;;10.10;99.90;;;;;;5047429;28;20269;-78
2022/10/21 03:29:29;;;;;;;15.33;12.83;;;10.10;99.90;;;;;;5047774;28;20189;-78
2022/10/21 03:31:55;;;;;;;14.30;12.90;;;10.20;99.90;;;;;;5047661;28;20252;-79
2022/10/21 03:34:21;;;;;;;14.53;13.03;;;10.30;1.00;;;;;;5043403;28;20214;-78
2022/10/21 03:36:46;;;;;;;15.63;13.93;;;10.40;1.00;;;;;;5047722;28;20182;-79
2022/10/21 03:39:12;;;;;;;14.60;12.83;;;10.40;99.90;;;;;;5048228;28;20613;-79
2022/10/21 03:41:38;;;;;;;15.30;13.70;;;10.40;99.90;;;;;;5049819;28;20182;-79
2022/10/21 03:44:04;;;;;;;16.30;13.57;;;10.50;99.90;;;;;;5047918;28;20210;-79
2022/10/21 03:46:29;;;;;;;14.43;12.93;;;10.50;99.90;;;;;;5047297;28;20178;-79
2022/10/21 03:48:55;;;;;;;14.37;12.70;;;10.60;1.00;;;;;;5044310;28;20698;-79
2022/10/21 03:51:20;;;;;;;16.17;12.93;;;10.60;99.90;;;;;;5045523;28;20209;-78
2022/10/21 03:53:46;;;;;;;13.80;12.40;;;10.70;1.00;;;;;;5047731;28;20674;-79
2022/10/21 03:56:12;;;;;;;12.90;11.50;;;10.50;1.00;;;;;;5045063;28;20194;-78
2022/10/21 03:58:38;;;;;;;14.07;11.60;;;10.50;99.90;;;;;;5047557;28;20261;-78
2022/10/21 04:01:03;;;;;;;13.23;11.93;;;10.40;1.00;;;;;;5047284;28;20721;-78
2022/10/21 04:03:29;;;;;;;15.93;12.77;;;10.30;1.00;;;;;;5047312;28;20247;-80
2022/10/21 04:05:55;;;;;;;15.90;13.17;;;10.30;99.90;;;;;;5043407;28;20194;-79
2022/10/21 04:08:20;;;;;;;14.77;13.27;;;10.60;79.60;;;;;;5043625;28;20567;-80
2022/10/21 04:10:47;;;;;;;14.93;13.30;;;10.30;58.60;;;;;;5047448;28;20194;-79
2022/10/21 04:13:13;;;;;;;15.83;14.13;;;10.40;99.90;;;;;;5046493;28;20197;-79
2022/10/21 04:15:39;;;;;;;16.73;13.50;;;10.30;1.00;;;;;;5046448;28;20194;-78
2022/10/21 04:18:05;;;;;;;14.40;13.00;;;10.50;30.10;;;;;;5040606;28;20590;-78
2022/10/21 04:20:31;;;;;;;14.17;12.27;;;10.40;99.90;;;;;;5044896;28;20178;-78
2022/10/21 04:22:56;;;;;;;15.33;13.73;;;10.50;1.00;;;;;;5040290;28;20604;-79
2022/10/21 04:25:22;;;;;;;15.07;13.10;;;10.60;99.90;;;;;;5045603;28;20206;-80
2022/10/21 04:27:48;;;;;;;15.07;12.03;;;10.40;1.00;;;;;;5046451;28;20181;-78
2022/10/21 04:30:13;;;;;;;14.60;12.90;;;10.50;99.90;;;;;;5046126;28;20186;-78
2022/10/21 04:32:39;;;;;;;14.13;12.73;;;10.50;99.90;;;;;;5044551;28;20178;-79
2022/10/21 04:35:05;;;;;;;14.47;12.13;;;10.60;1.00;;;;;;5045546;28;20853;-78
2022/10/21 04:37:30;;;;;;;13.77;12.20;;;10.60;99.90;;;;;;5045730;28;20178;-79
2022/10/21 04:39:56;;;;;;;13.73;11.90;;;10.60;1.00;;;;;;5046022;28;20183;-79
2022/10/21 04:42:22;;;;;;;13.87;12.13;;;10.60;1.00;;;;;;5043981;28;20252;-79
2022/10/21 04:44:48;;;;;;;14.00;12.33;;;10.60;99.90;;;;;;5043800;28;20206;-79
2022/10/21 04:47:14;;;;;;;13.43;12.10;;;10.60;99.90;;;;;;5045324;28;20186;-80
2022/10/21 04:49:39;;;;;;;15.80;12.73;;;10.70;99.90;;;;;;5044189;28;20283;-78
2022/10/21 04:52:05;;;;;;;14.80;13.20;;;10.80;1.00;;;;;;5044895;28;20182;-78
2022/10/21 04:54:30;;;;;;;18.13;13.33;;;10.60;1.00;;;;;;5045865;28;20242;-78
2022/10/21 04:56:56;;;;;;;15.87;13.70;;;10.60;99.90;;;;;;5045141;28;20174;-80
2022/10/21 04:59:22;;;;;;;15.23;12.33;;;10.70;1.00;;;;;;5044136;28;20202;-78
2022/10/21 05:01:47;;;;;;;15.43;13.17;;;11.00;1.00;;;;;;5043575;28;21002;-79
2022/10/21 05:04:13;;;;;;;17.40;13.80;;;10.60;1.00;;;;;;5046622;28;20210;-79
2022/10/21 05:06:38;;;;;;;15.20;13.10;;;10.70;1.00;;;;;;5047609;28;20662;-79
2022/10/21 05:09:04;;;;;;;14.47;12.77;;;10.70;68.60;;;;;;5045673;28;20189;-80
2022/10/21 05:11:30;;;;;;;15.50;13.27;;;10.70;1.00;;;;;;5044705;28;20186;-80
2022/10/21 05:13:55;;;;;;;16.10;12.77;;;10.70;1.00;;;;;;5043068;28;20214;-79
2022/10/21 05:16:22;;;;;;;14.57;12.37;;;10.80;1.00;;;;;;5044237;28;21126;-80
2022/10/21 05:18:48;;;;;;;16.60;13.67;;;10.90;1.00;;;;;;5054378;28;20185;-79
2022/10/21 05:21:14;;;;;;;15.43;13.40;;;10.80;1.00;;;;;;5046156;28;20186;-79
2022/10/21 05:23:39;;;;;;;14.20;12.70;;;10.70;53.30;;;;;;5045731;28;20241;-80
2022/10/21 05:26:05;;;;;;;15.03;13.20;;;10.70;99.90;;;;;;5044404;28;20228;-80
2022/10/21 05:28:31;;;;;;;17.13;13.43;;;10.80;1.00;;;;;;5045853;28;20178;-78
2022/10/21 05:30:56;;;;;;;15.50;13.30;;;10.90;1.00;;;;;;5044730;28;20181;-79
2022/10/21 05:33:22;;;;;;;16.53;12.60;;;11.10;99.90;;;;;;5044571;28;20505;-78
2022/10/21 05:36:00;;;;;;;18.33;13.50;;;11.00;1.00;;;;;;5038826;28;20277;-79
2022/10/21 05:38:33;;;;;;;17.23;13.53;;;10.60;1.00;;;;;;5044603;28;20173;-80
2022/10/21 05:40:59;;;;;;;16.42;12.80;;;10.60;1.00;;;;;;5048507;28;20179;-79
2022/10/21 05:43:26;;;;;;;16.53;13.30;;;10.50;99.90;;;;;;5043532;28;20213;-79
2022/10/21 05:45:52;;;;;;;15.33;13.23;;;10.50;99.90;;;;;;5043883;28;20393;-80
2022/10/21 05:48:19;;;;;;;16.73;13.90;;;10.80;99.90;;;;;;5044543;28;20194;-79
2022/10/21 05:50:46;;;;;;;18.63;13.70;;;10.50;1.00;;;;;;5043119;28;20182;-79
2022/10/21 05:53:13;;;;;;;17.10;13.63;;;10.50;1.00;;;;;;5044457;28;20186;-78
2022/10/21 05:55:38;;;;;;;16.20;13.43;;;10.50;1.00;;;;;;5044673;28;20321;-80
2022/10/21 05:58:04;;;;;;;17.33;14.47;;;11.30;99.90;;;;;;5045162;28;20265;-80
2022/10/21 06:00:30;;;;;;;18.13;13.80;;;10.70;1.00;;;;;;5045072;28;20216;-79
2022/10/21 06:02:55;;;;;;;17.80;14.33;;;11.80;1.00;;;;;;5039187;28;20210;-77
2022/10/21 06:05:21;;;;;;;19.33;14.38;;;10.80;99.90;;;;;;5044960;28;20209;-78
2022/10/21 06:07:47;;;;;;;18.53;14.23;;;11.10;99.90;;;;;;5038389;28;20572;-79
2022/10/21 06:10:15;;;;;;;19.80;14.55;;;11.00;99.90;;;;;;5044082;28;20277;-80
2022/10/21 06:12:41;;;;;;;16.87;14.23;;;11.10;1.00;;;;;;5044916;28;20182;-78
2022/10/21 06:15:07;;;;;;;18.37;14.37;;;11.40;1.00;;;;;;5048006;28;20216;-78
2022/10/21 06:17:33;;;;;;;17.58;14.13;;;11.30;1.00;;;;;;5047937;28;20190;-79
2022/10/21 06:20:00;;;;;;;17.33;14.23;;;11.30;99.90;;;;;;5047836;28;20653;-78
2022/10/21 06:22:26;;;;;;;18.00;13.27;;;11.50;99.90;;;;;;5046872;28;20281;-79
2022/10/21 06:24:52;;;;;;;16.23;13.43;;;11.80;1.00;;;;;;5047656;28;20285;-79
2022/10/21 06:27:17;;;;;;;14.85;12.70;;;11.60;1.00;;;;;;5047071;28;20186;-78
2022/10/21 06:29:43;;;;;;;15.23;12.65;;;11.60;1.00;;;;;;5049226;28;20221;-79
2022/10/21 06:32:09;;;;;;;14.88;12.85;;;11.80;1.00;;;;;;5046641;28;20186;-78
2022/10/21 06:34:34;;;;;;;17.90;12.27;;;12.00;1.00;;;;;;5048351;28;20251;-79
2022/10/21 06:37:00;;;;;;;13.95;11.98;;;11.90;1.00;;;;;;5047928;28;20186;-78
2022/10/21 06:39:25;;;;;;;17.38;12.38;;;11.90;99.90;;;;;;5047614;28;20185;-80
2022/10/21 06:41:51;;;;;;;14.20;11.68;;;11.90;99.90;;;;;;5047979;28;20190;-77
2022/10/21 06:44:17;;;;;;;14.57;11.48;;;12.00;99.90;;;;;;5047627;28;20214;-77
2022/10/21 06:46:42;;;;;;;13.75;11.77;;;12.00;99.90;;;;;;5047914;28;20186;-77
2022/10/21 06:49:08;;;;;;;13.95;11.25;;;12.10;99.90;;;;;;5047204;28;20210;-77
2022/10/21 06:51:33;;;;;;;12.50;11.20;;;12.20;44.80;;;;;;5047287;28;20626;-79
2022/10/21 06:53:59;;;;;;;13.27;10.65;;;12.00;22.90;;;;;;5046866;28;20202;-78
2022/10/21 06:56:26;;;;;;;13.75;11.52;;;12.00;1.00;;;;;;5044612;28;20222;-77
2022/10/21 06:58:54;;;;;;;13.98;10.85;;;12.10;1.00;;;;;;5044231;28;20183;-77
2022/10/21 07:01:24;;;;;;;13.40;11.05;;;12.10;24.00;;;;;;5042035;28;20178;-80
2022/10/21 07:03:50;;;;;;;15.57;12.75;;;12.20;99.90;;;;;;5046462;28;20317;-78
2022/10/21 07:06:15;;;;;;;13.05;11.75;;;12.30;99.60;;;;;;5045461;28;20189;-77
2022/10/21 07:08:42;;;;;;;14.82;12.20;;;12.20;56.90;;;;;;5047850;28;20170;-77
2022/10/21 07:11:10;;;;;;;13.07;11.75;;;12.30;60.00;;;;;;5044274;28;20178;-77
2022/10/21 07:13:36;;;;;;;12.77;11.48;;;12.30;99.90;;;;;;5044024;28;20178;-77
2022/10/21 07:16:16;;;;;;;13.00;11.75;;;12.40;38.50;;;;;;5042471;28;20247;-78
2022/10/21 07:18:42;;;;;;;12.55;11.35;;;12.40;1.00;;;;;;5042443;28;20285;-78
2022/10/21 07:21:12;;;;;;;11.45;10.35;;;12.50;1.00;;;;;;5043050;28;20273;-81
2022/10/21 07:23:38;;;;;;;11.95;10.73;;;12.60;1.00;;;;;;5043887;28;20206;-79
2022/10/21 07:26:06;;;;;;;12.30;11.10;;;12.70;1.00;;;;;;5047172;28;20254;-79
2022/10/21 07:28:32;;;;;;;11.52;10.38;;;12.80;1.00;;;;;;5047656;28;20829;-78
2022/10/21 07:30:58;;;;;;;11.98;10.77;;;12.90;1.00;;;;;;5047069;28;20189;-78
2022/10/21 07:33:23;;;;;;;12.80;11.32;;;12.80;1.00;;;;;;5046489;28;20186;-83
2022/10/21 07:35:49;;;;;;;12.82;10.82;;;12.80;1.00;;;;;;5046369;28;21029;-85
2022/10/21 07:38:15;;;;;;;13.00;11.43;;;12.80;1.00;;;;;;5046920;28;20186;-85
2022/10/21 07:40:42;;;;;;;11.30;10.20;;;13.10;1.00;;;;;;5043217;28;20193;-84
2022/10/21 07:43:08;;;;;;;11.15;10.02;;;13.10;1.00;;;;;;5043106;28;20213;-84
2022/10/21 07:45:39;;;;;;;12.30;10.70;;;13.20;1.00;;;;;;5046366;28;20251;-83
2022/10/21 07:48:05;;;;;;;10.95;9.85;;;13.30;1.00;;;;;;5044934;28;20198;-85
2022/10/21 07:50:30;;;;;;;11.00;9.45;;;13.40;99.90;;;;;;5045725;28;20201;-85
2022/10/21 07:52:56;;;;;;;10.88;9.43;;;13.60;99.90;;;;;;5046233;28;20189;-85
2022/10/21 07:55:22;;;;;;;10.88;9.52;;;13.90;99.90;;;;;;5045624;28;20705;-85
2022/10/21 07:57:47;;;;;;;10.45;9.05;;;13.80;99.90;;;;;;5046644;28;20182;-85
2022/10/21 08:00:13;;;;;;;9.90;8.75;;;14.00;99.90;;;;;;5046205;28;20324;-85
2022/10/21 08:02:39;;;;;;;9.20;8.30;;;14.20;99.90;;;;;;5045815;28;20194;-85
2022/10/21 08:05:05;;;;;;;9.05;8.15;;;14.30;99.90;;;;;;5047227;28;20202;-85
2022/10/21 08:07:32;;;;;;;9.52;8.27;;;14.30;99.90;;;;;;5048971;28;20189;-85
2022/10/21 08:09:58;;;;;;;8.68;7.88;;;14.30;99.90;;;;;;5048131;28;21202;-84
2022/10/21 08:12:24;;;;;;;9.30;7.30;;;14.40;99.90;;;;;;5048508;28;20669;-86
2022/10/21 08:14:50;;;;;;;8.80;7.38;;;14.50;99.90;;;;;;5048477;28;20275;-86
2022/10/21 08:17:16;;;;;;;7.80;7.10;;;14.40;99.90;;;;;;5047440;28;20190;-86
2022/10/21 08:19:42;;;;;;;8.07;7.38;;;14.60;99.90;;;;;;5048326;28;20174;-85
2022/10/21 08:22:07;;;;;;;9.55;7.63;;;14.60;99.90;;;;;;5047854;28;20186;-85
2022/10/21 08:24:34;;;;;;;8.25;7.45;;;14.60;99.90;;;;;;5045864;28;20205;-85
2022/10/21 08:27:04;;;;;;;8.32;7.53;;;14.40;99.90;;;;;;5031043;28;20186;-85
2022/10/21 08:29:30;;;;;;;8.93;8.05;;;14.30;99.90;;;;;;5048727;28;20181;-84
2022/10/21 08:31:55;;;;;;;9.10;7.93;;;14.30;99.90;;;;;;5046607;28;20190;-86
2022/10/21 08:34:21;;;;;;;9.32;7.85;;;14.50;99.90;;;;;;5041257;28;20209;-79
2022/10/21 08:36:47;;;;;;;10.25;7.38;;;14.40;99.90;;;;;;5043392;28;20179;-79
2022/10/21 08:39:12;;;;;;;8.82;7.20;;;14.50;99.90;;;;;;5043388;28;20183;-81
2022/10/21 08:41:51;;;;;;;8.10;7.40;;;14.40;99.90;;;;;;5046840;28;20190;-82
2022/10/21 08:44:38;;;;;;;9.13;7.82;;;14.50;99.90;;;;;;5043939;28;20217;-79
2022/10/21 08:47:06;;;;;;;8.48;7.57;;;14.50;99.90;;;;;;5044077;28;20193;-80
2022/10/21 08:49:58;;;;;;;7.45;6.68;;;14.60;99.90;;;;;;5043923;28;20321;-78
2022/10/21 08:52:37;;;;;;;7.20;6.50;;;14.80;99.90;;;;;;5043398;28;20500;-79
2022/10/21 08:55:09;;;;;;;7.72;6.72;;;15.10;99.90;;;;;;5042388;28;20805;-78
2022/10/21 08:57:34;;;;;;;8.05;6.68;;;15.20;99.90;;;;;;5042525;28;20261;-79
2022/10/21 09:00:05;;;;;;;9.05;6.03;;;15.60;99.90;;;;;;5043897;28;20269;-82
2022/10/21 09:02:42;;;;;;;7.45;5.80;;;15.70;99.90;;;;;;5044316;28;20213;-80
2022/10/21 09:05:29;;;;;;;8.32;5.25;;;16.00;76.30;;;;;;5044077;28;20202;-80
2022/10/21 09:08:12;;;;;;;6.22;5.35;;;16.10;74.30;;;;;;5043113;28;20182;-80
2022/10/21 09:11:22;;;;;;;7.25;4.82;;;16.30;38.50;;;;;;5044466;28;20180;-80
2022/10/21 09:13:51;;;;;;;7.32;5.00;;;16.40;22.70;;;;;;4967826;28;21242;-81
2022/10/21 09:16:50;;;;;;;7.18;4.85;;;16.50;12.40;;;;;;5044104;28;20875;-77
2022/10/21 09:19:54;;;;;;;5.43;4.90;;;16.80;3.80;;;;;;5043719;28;20277;-78
2022/10/21 09:23:02;;;;;;;7.35;4.78;;;16.60;1.00;;;;;;4935295;28;20192;-80
2022/10/21 09:25:57;;;;;;;5.05;4.30;;;16.50;1.00;;;;;;5042652;28;20198;-79
2022/10/21 09:28:24;;;;;;;7.28;4.57;;;16.50;1.00;;;;;;5042448;28;20193;-79
2022/10/21 09:30:51;;;;;;;8.98;4.45;;;16.60;1.00;;;;;;5043944;28;20182;-78
2022/10/21 09:33:25;;;;;;;5.65;4.00;;;16.80;1.00;;;;;;5043198;28;20608;-79
2022/10/21 09:36:09;;;;;;;5.82;3.90;;;16.90;1.00;;;;;;5043985;28;20186;-80
2022/10/21 09:38:46;;;;;;;4.85;3.80;;;17.10;1.00;;;;;;5042143;28;20245;-79
2022/10/21 09:41:22;;;;;;;5.80;4.20;;;17.10;1.00;;;;;;5041296;28;20197;-80
2022/10/21 09:43:49;;;;;;;4.88;3.60;;;17.20;1.00;;;;;;5040765;28;20586;-79
2022/10/21 09:46:15;;;;;;;5.25;3.72;;;17.40;1.00;;;;;;5040835;28;20556;-79
2022/10/21 09:48:52;;;;;;;5.13;3.50;;;17.50;1.00;;;;;;5042476;28;20204;-80
2022/10/21 09:51:30;;;;;;;6.13;4.15;;;17.70;1.00;;;;;;5041371;28;20236;-79
2022/10/21 09:53:57;;;;;;;4.72;3.80;;;17.40;1.00;;;;;;5042567;28;20541;-78
2022/10/21 09:56:32;;;;;;;6.72;4.88;;;17.40;1.00;;;;;;5040724;28;21004;-80
2022/10/21 09:59:04;;;;;;;5.53;3.90;;;17.60;1.00;;;;;;5040836;28;20190;-79
2022/10/21 10:01:30;;;;;;;4.43;3.40;;;17.70;1.00;;;;;;5041934;28;20178;-79
2022/10/21 10:03:56;;;;;;;5.28;3.63;;;17.70;1.00;;;;;;5041916;28;20217;-76
2022/10/21 10:06:40;;;;;;;6.47;3.80;;;17.60;1.00;;;;;;5040879;28;20187;-77
2022/10/21 10:09:27;;;;;;;5.60;2.92;;;17.60;1.00;;;;;;5044470;28;21305;-77
2022/10/21 10:11:55;;;;;;;4.13;2.97;;;17.50;1.00;;;;;;5045925;28;20631;-78
2022/10/21 10:14:27;;;;;;;3.72;3.03;;;17.50;1.00;;;;;;5043773;28;20210;-78
2022/10/21 10:16:53;;;;;;;4.65;3.17;;;17.50;1.00;;;;;;5042203;28;20204;-78
2022/10/21 10:19:27;;;;;;;4.80;3.38;;;17.60;1.00;;;;;;5044708;28;20206;-79
2022/10/21 10:22:10;;;;;;;6.95;3.40;;;17.70;1.00;;;;;;5045077;28;20265;-78
2022/10/21 10:24:39;;;;;;;6.43;3.42;;;17.80;1.00;;;;;;5044297;28;20548;-79
2022/10/21 10:27:14;;;;;;;4.97;3.65;;;17.80;1.00;;;;;;5042752;28;20719;-78
2022/10/21 10:29:41;;;;;;;8.50;3.60;;;17.90;1.00;;;;;;5046108;28;20186;-77
2022/10/21 10:32:14;;;;;;;4.57;3.28;;;18.10;1.00;;;;;;5046399;28;20186;-78
2022/10/21 10:34:52;;;;;;;7.22;3.40;;;18.20;1.00;;;;;;5045568;28;20213;-78
2022/10/21 10:37:21;;;;;;;7.93;3.53;;;18.30;1.00;;;;;;5043705;28;20178;-79
2022/10/21 10:39:50;;;;;;;6.63;3.63;;;18.50;1.00;;;;;;5046234;28;20601;-78
2022/10/21 10:42:25;;;;;;;8.45;5.60;;;18.40;1.00;;;;;;5045138;28;20175;-78
2022/10/21 10:45:01;;;;;;;7.13;5.10;;;18.10;1.00;;;;;;5047789;28;20201;-79
2022/10/21 10:47:30;;;;;;;5.93;4.00;;;18.30;1.00;;;;;;5044737;28;20182;-77
2022/10/21 10:49:56;;;;;;;6.97;3.85;;;18.10;1.00;;;;;;5047008;28;20178;-78
2022/10/21 10:52:23;;;;;;;5.78;3.05;;;18.00;1.00;;;;;;5044717;28;20278;-80
2022/10/21 10:55:10;;;;;;;5.13;3.17;;;17.90;1.00;;;;;;5045263;28;20205;-79
2022/10/21 10:57:39;;;;;;;4.90;3.17;;;17.70;1.00;;;;;;5047626;28;20178;-79
2022/10/21 11:00:13;;;;;;;6.82;3.80;;;17.90;1.00;;;;;;5050669;28;20182;-79
2022/10/21 11:03:06;;;;;;;5.50;3.92;;;17.70;1.00;;;;;;5049286;28;20210;-79
2022/10/21 11:05:47;;;;;;;6.10;3.60;;;17.20;1.00;;;;;;5049406;28;20228;-79
2022/10/21 11:08:26;;;;;;;6.40;3.42;;;17.00;1.00;;;;;;5046403;28;20235;-79
2022/10/21 11:10:58;;;;;;;6.65;3.70;;;17.10;1.00;;;;;;5048010;28;20638;-79
2022/10/21 11:13:24;;;;;;;4.82;3.42;;;16.80;1.00;;;;;;5048389;28;20736;-79
2022/10/21 11:15:58;;;;;;;6.47;3.83;;;16.70;1.00;;;;;;5049951;28;20228;-79
2022/10/21 11:18:35;;;;;;;5.75;3.70;;;16.70;1.00;;;;;;5046503;28;20268;-79
2022/10/21 11:21:23;;;;;;;17.52;6.60;;;16.70;1.00;;;;;;5046836;28;20190;-80
2022/10/21 11:23:58;;;;;;;7.13;6.18;;;16.70;1.00;;;;;;5046322;28;20210;-79
2022/10/21 11:26:47;;;;;;;6.75;4.90;;;16.60;1.00;;;;;;5045621;28;20208;-80
2022/10/21 11:29:24;;;;;;;7.95;4.80;;;16.70;1.00;;;;;;5046824;28;20186;-80
2022/10/21 11:32:18;;;;;;;7.75;4.10;;;17.10;1.00;;;;;;5046679;28;20177;-79
2022/10/21 11:34:56;;;;;;;10.95;4.22;;;16.80;1.00;;;;;;5041244;28;20267;-78
2022/10/21 11:37:21;;;;;;;5.72;3.42;;;17.00;1.00;;;;;;5048339;28;20213;-79
2022/10/21 11:40:01;;;;;;;5.20;3.72;;;17.00;1.00;;;;;;5045260;28;20197;-79
2022/10/21 11:42:39;;;;;;;6.38;3.33;;;17.10;1.00;;;;;;5045354;28;21000;-80
2022/10/21 11:45:38;;;;;;;5.18;3.63;;;16.90;1.00;;;;;;5045401;28;20237;-78
2022/10/21 11:48:10;;;;;;;3.90;3.00;;;17.10;1.00;;;;;;5047903;28;20277;-80
2022/10/21 11:50:41;;;;;;;4.50;3.10;;;17.10;1.00;;;;;;5049786;28;20182;-79
2022/10/21 11:53:33;;;;;;;3.85;3.10;;;17.20;1.00;;;;;;5049606;28;20193;-80
2022/10/21 11:56:08;;;;;;;5.20;3.15;;;17.20;1.00;;;;;;5047258;28;20190;-79
2022/10/21 11:59:03;;;;;;;4.30;3.30;;;17.30;1.00;;;;;;5045082;28;20182;-79
2022/10/21 12:01:31;;;;;;;5.93;3.40;;;17.30;1.00;;;;;;5045952;28;20182;-79
2022/10/21 12:04:12;;;;;;;4.20;3.20;;;17.20;1.00;;;;;;5048354;28;20248;-79
2022/10/21 12:07:08;;;;;;;5.55;3.58;;;17.20;1.00;;;;;;5049127;28;20194;-79
2022/10/21 12:09:48;;;;;;;5.22;3.75;;;17.30;1.00;;;;;;5046598;28;20183;-80
2022/10/21 12:12:21;;;;;;;4.25;3.10;;;17.40;1.00;;;;;;5052248;28;20190;-79
2022/10/21 12:14:56;;;;;;;3.78;3.38;;;17.40;1.00;;;;;;5046676;28;20331;-79
2022/10/21 12:17:22;;;;;;;9.10;4.00;;;17.30;1.00;;;;;;5048312;28;20185;-79
2022/10/21 12:19:55;;;;;;;6.15;3.90;;;17.40;1.00;;;;;;5051812;28;20268;-78
2022/10/21 12:22:24;;;;;;;5.00;3.70;;;17.30;1.00;;;;;;5047977;28;20283;-79
2022/10/21 12:25:00;;;;;;;4.97;3.40;;;17.40;1.00;;;;;;5048260;28;20194;-79
2022/10/21 12:27:46;;;;;;;4.35;3.42;;;17.50;1.00;;;;;;5047988;28;20174;-78
2022/10/21 12:30:21;;;;;;;5.40;3.40;;;17.40;1.00;;;;;;5049368;28;20178;-79
2022/10/21 12:33:15;;;;;;;5.38;3.05;;;17.50;1.00;;;;;;5047041;28;20182;-79
2022/10/21 12:35:53;;;;;;;6.43;3.90;;;17.50;1.00;;;;;;5048890;28;20709;-81
2022/10/21 12:38:43;;;;;;;7.55;4.07;;;17.50;1.00;;;;;;5053862;28;20832;-80
2022/10/21 12:41:34;;;;;;;4.57;4.10;;;17.70;1.00;;;;;;5058177;28;20183;-78
2022/10/21 12:44:00;;;;;;;12.30;7.05;;;17.50;1.00;;;;;;5055189;28;20218;-77
2022/10/21 12:46:28;;;;;;;11.63;7.50;;;17.40;1.00;;;;;;5054612;28;20231;-78
2022/10/21 12:48:55;;;;;;;11.02;7.10;;;17.50;1.00;;;;;;5050642;28;20194;-80
2022/10/21 12:51:25;;;;;;;12.25;7.50;;;17.50;1.00;;;;;;5045609;28;20210;-79
2022/10/21 12:54:05;;;;;;;8.40;5.97;;;17.30;1.00;;;;;;5045816;28;20617;-78
2022/10/21 12:56:36;;;;;;;5.80;5.18;;;17.00;1.00;;;;;;5044616;28;20182;-79
2022/10/21 12:59:05;;;;;;;8.18;5.88;;;16.80;1.00;;;;;;5040538;28;20677;-80
2022/10/21 13:02:03;;;;;;;9.70;6.18;;;16.60;1.00;;;;;;5044155;28;20569;-78